Time;durP1;ratioP1;P1;durP2;ratioP2;P2;SDS_P1;SDS_P2;PMS_P1;PMS_P2;Temp;Humidity;BMP_temperature;BMP_pressure;BME280_temperature;BME280_humidity;BME280_pressure;Samples;Min_cycle;Max_cycle;Signal;HPM_P1;HPM_P2
2022/05/17 00:02:12;;;;;;;;;11.25;7.00;;;;;22.27;45.22;101293.59;5031510;28;45716;-47
2022/05/17 00:04:37;;;;;;;;;7.25;6.50;;;;;22.27;45.29;101288.28;5029494;28;60624;-46
2022/05/17 00:07:04;;;;;;;;;6.00;5.75;;;;;22.26;45.10;101286.56;5025778;28;55782;-46
2022/05/17 00:09:30;;;;;;;;;8.00;7.00;;;;;22.27;45.61;101281.13;5033574;28;45319;-48
2022/05/17 00:11:59;;;;;;;;;11.50;7.75;;;;;22.27;45.27;101288.28;5031290;28;45327;-48
2022/05/17 00:14:25;;;;;;;;;6.00;5.00;;;;;22.24;45.55;101281.31;5023035;28;47178;-47
2022/05/17 00:16:51;;;;;;;;;8.50;7.00;;;;;22.23;45.51;101282.25;5027920;28;45385;-47
2022/05/17 00:19:19;;;;;;;;;13.00;6.25;;;;;22.24;46.06;101280.44;5029234;28;45502;-48
2022/05/17 00:21:45;;;;;;;;;5.50;5.00;;;;;22.20;45.97;101277.13;5029635;28;45450;-48
2022/05/17 00:24:10;;;;;;;;;4.75;4.25;;;;;22.15;45.92;101284.56;5026659;28;45734;-48
2022/05/17 00:26:35;;;;;;;;;6.00;4.50;;;;;22.12;46.35;101284.81;5036317;28;54359;-50
2022/05/17 00:29:03;;;;;;;;;6.00;6.00;;;;;22.10;46.00;101276.91;5030054;28;62183;-46
2022/05/17 00:31:28;;;;;;;;;8.00;6.00;;;;;22.07;46.07;101274.44;5032586;28;45752;-47
2022/05/17 00:33:53;;;;;;;;;7.50;6.00;;;;;22.06;46.38;101277.22;5028626;28;47240;-48
2022/05/17 00:36:19;;;;;;;;;8.75;7.25;;;;;22.04;46.71;101271.97;5031498;28;45687;-49
2022/05/17 00:38:45;;;;;;;;;8.00;5.25;;;;;21.99;46.33;101279.41;5028414;28;45425;-47
2022/05/17 00:41:10;;;;;;;;;8.00;6.25;;;;;21.93;46.59;101272.69;5035029;28;59691;-49
2022/05/17 00:46:40;;;;;;;;;5.00;5.00;;;;;21.88;47.16;101271.28;5034749;28;45295;-46
2022/05/17 00:49:09;;;;;;;;;8.00;6.75;;;;;21.86;46.86;101267.88;5028299;28;45423;-49
2022/05/17 00:51:34;;;;;;;;;5.00;5.00;;;;;21.85;47.81;101267.03;5027347;28;45383;-46
2022/05/17 00:54:07;;;;;;;;;7.00;6.00;;;;;21.84;47.17;101267.97;5030293;28;69986;-48
2022/05/17 00:56:33;;;;;;;;;5.50;3.50;;;;;21.79;46.93;101265.59;5031147;28;45783;-47
2022/05/17 00:59:00;;;;;;;;;6.00;4.25;;;;;21.74;47.08;101264.19;5029356;28;45197;-46
2022/05/17 01:01:30;;;;;;;;;9.75;6.00;;;;;21.77;47.23;101270.19;5031549;28;45437;-46
2022/05/17 01:04:19;;;;;;;;;8.50;6.00;;;;;21.76;47.29;101260.50;5048666;28;46202;-48
2022/05/17 01:06:50;;;;;;;;;7.75;6.25;;;;;21.74;47.59;101262.41;5027284;28;45213;-46
2022/05/17 01:09:16;;;;;;;;;7.25;6.25;;;;;21.71;47.46;101257.28;5034600;28;45483;-46
2022/05/17 01:11:42;;;;;;;;;8.75;6.50;;;;;21.73;47.89;101266.03;5036654;28;45314;-48
2022/05/17 01:16:52;;;;;;;;;7.00;6.00;;;;;21.76;47.47;101249.84;5034230;28;45853;-47
2022/05/17 01:19:17;;;;;;;;;8.75;6.00;;;;;21.75;47.79;101253.44;5037156;28;45822;-46
2022/05/17 01:21:43;;;;;;;;;6.25;6.00;;;;;21.74;48.33;101254.44;5035033;28;45312;-47
2022/05/17 01:24:09;;;;;;;;;6.50;5.00;;;;;21.70;47.99;101249.38;5023220;28;47299;-46
2022/05/17 01:26:36;;;;;;;;;7.75;6.00;;;;;21.72;47.75;101252.78;5031283;28;45365;-46
2022/05/17 01:29:05;;;;;;;;;5.00;4.00;;;;;21.73;48.18;101255.38;5031791;28;45275;-47
2022/05/17 01:31:31;;;;;;;;;7.00;6.25;;;;;21.70;47.93;101252.06;5040321;28;45482;-48
2022/05/17 01:33:57;;;;;;;;;9.00;4.25;;;;;21.68;47.83;101257.47;5027113;28;70778;-47
2022/05/17 01:36:23;;;;;;;;;8.00;5.75;;;;;21.66;47.85;101254.06;5026801;28;68176;-46
2022/05/17 01:38:52;;;;;;;;;6.50;5.00;;;;;21.67;48.30;101254.91;5036731;28;45318;-47
2022/05/17 01:41:19;;;;;;;;;11.00;6.00;;;;;21.65;48.02;101254.16;5026225;28;45407;-47
2022/05/17 01:43:44;;;;;;;;;11.75;8.00;;;;;21.64;48.64;101250.66;5027139;28;46237;-47
2022/05/17 01:46:10;;;;;;;;;10.25;7.25;;;;;21.61;48.57;101254.34;5033883;28;59660;-47
2022/05/17 01:48:39;;;;;;;;;8.00;6.00;;;;;21.61;48.23;101249.03;5029051;28;45396;-47
2022/05/17 01:51:06;;;;;;;;;8.75;6.00;;;;;21.57;48.50;101257.34;5028782;28;56051;-46
2022/05/17 01:53:33;;;;;;;;;6.00;6.00;;;;;21.56;47.96;101250.28;5024817;28;45452;-46
2022/05/17 01:55:58;;;;;;;;;9.75;6.50;;;;;21.49;48.28;101240.97;5025177;28;45226;-47
2022/05/17 01:58:23;;;;;;;;;8.00;7.00;;;;;21.54;48.38;101250.38;5029435;28;45482;-47
2022/05/17 02:00:49;;;;;;;;;10.50;6.00;;;;;21.54;48.49;101253.03;5031693;28;65861;-48
2022/05/17 02:03:14;;;;;;;;;6.00;4.25;;;;;21.54;47.84;101250.38;5030554;28;45962;-46
2022/05/17 02:05:40;;;;;;;;;8.00;6.00;;;;;21.53;48.09;101251.34;5024776;28;45420;-49
2022/05/17 02:08:05;;;;;;;;;5.00;5.00;;;;;21.52;48.01;101257.63;5033289;28;45437;-46
2022/05/17 02:10:31;;;;;;;;;8.00;5.25;;;;;21.53;48.02;101264.66;5030541;28;45983;-48
2022/05/17 02:12:58;;;;;;;;;6.75;5.00;;;;;21.50;47.83;101291.50;5038028;28;46249;-47
2022/05/17 02:15:25;;;;;;;;;6.00;5.25;;;;;21.46;48.06;101286.44;5039027;28;45621;-49
2022/05/17 02:17:51;;;;;;;;;7.00;4.00;;;;;21.39;47.80;101265.53;5037986;28;45443;-48
2022/05/17 02:20:16;;;;;;;;;4.75;4.00;;;;;21.42;47.71;101286.63;5031430;28;45610;-47
2022/05/17 02:22:42;;;;;;;;;6.50;6.00;;;;;21.42;47.98;101283.09;5028956;28;46169;-47
2022/05/17 02:25:08;;;;;;;;;6.00;4.00;;;;;21.43;48.23;101279.50;5027780;28;56633;-47
2022/05/17 02:27:34;;;;;;;;;5.00;5.00;;;;;21.43;47.69;101285.66;5033764;28;45403;-47
2022/05/17 02:29:59;;;;;;;;;5.00;5.00;;;;;21.43;48.12;101288.31;5034617;28;55722;-49
2022/05/17 02:32:25;;;;;;;;;5.25;5.25;;;;;21.41;47.96;101295.56;5033558;28;51640;-46
2022/05/17 02:34:51;;;;;;;;;4.50;4.50;;;;;21.37;47.75;101285.19;5028283;28;45739;-48
2022/05/17 02:37:16;;;;;;;;;6.50;3.25;;;;;21.37;47.99;101285.19;5039147;28;45744;-47
2022/05/17 02:39:42;;;;;;;;;4.50;4.50;;;;;21.37;47.73;101278.09;5023187;28;65298;-46
2022/05/17 02:42:09;;;;;;;;;5.75;4.00;;;;;21.38;47.99;101287.75;5028370;28;47157;-48
2022/05/17 02:44:35;;;;;;;;;3.00;3.00;;;;;21.36;47.48;101288.81;5032570;28;45494;-48
2022/05/17 02:47:00;;;;;;;;;4.75;4.25;;;;;21.35;47.71;101282.63;5030795;28;45452;-47
2022/05/17 02:49:25;;;;;;;;;8.25;5.00;;;;;21.35;47.67;101289.75;5031789;28;45757;-46
2022/05/17 02:51:51;;;;;;;;;8.25;4.00;;;;;21.34;47.36;101288.91;5024281;28;47015;-49
2022/05/17 02:54:16;;;;;;;;;7.00;5.00;;;;;21.34;47.44;101285.41;5035925;28;45312;-48
2022/05/17 02:56:42;;;;;;;;;5.75;4.25;;;;;21.33;47.28;101275.69;5031646;28;45277;-46
2022/05/17 02:59:07;;;;;;;;;5.00;3.50;;;;;21.34;47.55;101283.59;5027831;28;64882;-47
2022/05/17 03:01:32;;;;;;;;;5.75;5.00;;;;;21.34;47.31;101280.94;5033716;28;69372;-47
2022/05/17 03:03:58;;;;;;;;;5.00;4.00;;;;;21.34;47.29;101285.41;5030053;28;63962;-47
2022/05/17 03:06:23;;;;;;;;;7.00;4.50;;;;;21.32;47.60;101280.19;5036304;28;45456;-48
2022/05/17 03:08:48;;;;;;;;;5.00;3.75;;;;;21.30;47.20;101274.09;5029478;28;45412;-50
2022/05/17 03:11:15;;;;;;;;;3.00;3.00;;;;;21.31;47.45;101278.44;5025350;28;63231;-46
2022/05/17 03:13:40;;;;;;;;;4.25;4.00;;;;;21.29;47.42;101271.53;5036440;28;45752;-48
2022/05/17 03:16:06;;;;;;;;;6.00;4.75;;;;;21.29;47.35;101267.06;5038368;28;45360;-47
2022/05/17 03:18:31;;;;;;;;;5.50;4.75;;;;;21.30;47.71;101275.88;5029398;28;45660;-47
2022/05/17 03:20:57;;;;;;;;;5.25;4.00;;;;;21.27;48.16;101271.63;5034773;28;68570;-48
2022/05/17 03:23:22;;;;;;;;;7.00;5.00;;;;;21.29;48.04;101275.03;5033952;28;45512;-49
2022/05/17 03:25:47;;;;;;;;;6.00;5.00;;;;;21.26;47.88;101275.22;5029719;28;61952;-46
2022/05/17 03:28:13;;;;;;;;;6.00;5.50;;;;;21.26;48.23;101274.38;5025298;28;65747;-47
2022/05/17 03:30:39;;;;;;;;;6.25;6.25;;;;;21.25;48.29;101273.53;5034767;28;45276;-48
2022/05/17 03:33:05;;;;;;;;;5.50;4.25;;;;;21.19;48.18;101272.09;5035141;28;45450;-47
2022/05/17 03:35:30;;;;;;;;;5.00;4.75;;;;;21.20;48.22;101278.28;5030295;28;45422;-46
2022/05/17 03:37:56;;;;;;;;;7.75;5.75;;;;;21.19;48.33;101271.25;5026234;28;45379;-47
2022/05/17 03:40:21;;;;;;;;;6.00;5.00;;;;;21.18;48.31;101270.41;5029402;28;68298;-47
2022/05/17 03:42:46;;;;;;;;;6.25;5.00;;;;;21.15;48.31;101265.25;5032236;28;55518;-46
2022/05/17 03:45:13;;;;;;;;;4.25;4.25;;;;;21.12;48.34;101261.94;5033971;28;45386;-46
2022/05/17 03:47:38;;;;;;;;;8.00;5.00;;;;;21.07;48.56;101269.34;5019973;28;46277;-46
2022/05/17 03:50:05;;;;;;;;;6.00;3.50;;;;;21.03;48.48;101260.72;5031702;28;45516;-47
2022/05/17 03:52:31;;;;;;;;;6.50;6.00;;;;;20.99;48.81;101273.34;5023391;28;45948;-47
2022/05/17 03:54:57;;;;;;;;;6.50;5.00;;;;;20.99;48.69;101276.00;5031565;28;46077;-46
2022/05/17 03:57:26;;;;;;;;;6.00;5.00;;;;;20.97;48.78;101266.44;5031121;28;45312;-47
2022/05/17 03:59:52;;;;;;;;;9.75;5.00;;;;;21.00;48.62;101263.56;5025931;28;46162;-48
2022/05/17 04:02:18;;;;;;;;;7.50;6.25;;;;;20.96;48.87;101262.03;5026732;28;46411;-46
2022/05/17 04:04:44;;;;;;;;;7.25;5.75;;;;;20.99;48.64;101268.03;5032550;28;48903;-45
2022/05/17 04:07:09;;;;;;;;;7.50;4.00;;;;;20.99;48.80;101273.34;5025953;28;45661;-46
2022/05/17 04:09:34;;;;;;;;;5.75;5.00;;;;;20.99;49.00;101267.19;5028563;28;67893;-47
2022/05/17 04:12:00;;;;;;;;;7.75;6.00;;;;;20.99;49.14;101272.50;5033319;28;45541;-47
2022/05/17 04:14:25;;;;;;;;;5.75;5.25;;;;;20.99;49.31;101278.66;5029594;28;64265;-46
2022/05/17 04:16:51;;;;;;;;;5.00;4.75;;;;;20.96;49.01;101278.00;5040536;28;64847;-47
2022/05/17 04:19:16;;;;;;;;;6.00;5.00;;;;;20.94;49.40;101280.75;5035158;28;46126;-47
2022/05/17 04:21:43;;;;;;;;;9.50;7.25;;;;;20.94;49.37;101267.47;5026022;28;45590;-47
2022/05/17 04:24:09;;;;;;;;;10.00;6.00;;;;;20.94;49.74;101275.44;5029453;28;45534;-48
2022/05/17 04:26:35;;;;;;;;;7.75;5.75;;;;;20.95;49.19;101279.81;5031988;28;45227;-47
2022/05/17 04:29:02;;;;;;;;;8.00;7.00;;;;;20.95;49.75;101278.97;5036555;28;46338;-47
2022/05/17 04:31:27;;;;;;;;;7.00;6.25;;;;;20.95;49.57;101279.81;5036187;28;45334;-48
2022/05/17 04:33:52;;;;;;;;;7.00;7.00;;;;;20.95;49.76;101286.97;5036926;28;45257;-47
2022/05/17 04:36:18;;;;;;;;;7.50;6.50;;;;;20.95;49.72;101290.47;5031609;28;45312;-48
2022/05/17 04:38:43;;;;;;;;;7.50;7.50;;;;;20.95;49.93;101282.50;5034690;28;46161;-46
2022/05/17 04:41:08;;;;;;;;;11.00;5.00;;;;;20.94;49.76;101293.22;5033149;28;67942;-47
2022/05/17 04:43:34;;;;;;;;;8.25;7.00;;;;;20.89;50.17;101293.50;5028321;28;60656;-49
2022/05/17 04:45:59;;;;;;;;;7.00;6.75;;;;;20.86;49.76;101288.38;5031992;28;45453;-48
2022/05/17 04:48:25;;;;;;;;;8.50;7.00;;;;;20.85;50.02;101292.81;5037569;28;46090;-47
2022/05/17 04:50:51;;;;;;;;;7.50;6.75;;;;;20.85;50.23;101291.97;5026687;28;67549;-47
2022/05/17 04:53:17;;;;;;;;;12.50;8.00;;;;;20.86;50.12;101297.22;5030513;28;45498;-46
2022/05/17 04:55:42;;;;;;;;;10.75;7.00;;;;;20.84;50.45;101300.91;5041639;28;45746;-48
2022/05/17 04:58:08;;;;;;;;;7.25;7.00;;;;;20.84;50.23;101303.56;5036142;28;46440;-48
2022/05/17 05:00:33;;;;;;;;;10.50;6.25;;;;;20.83;49.74;101300.06;5028118;28;45457;-47
2022/05/17 05:02:59;;;;;;;;;6.50;6.25;;;;;20.83;50.08;101302.72;5031412;28;45485;-48
2022/05/17 05:05:24;;;;;;;;;9.00;8.00;;;;;20.84;50.21;101296.44;5037398;28;65247;-49
2022/05/17 05:07:50;;;;;;;;;10.25;8.00;;;;;20.88;50.38;101305.09;5025593;28;46076;-46
2022/05/17 05:10:16;;;;;;;;;9.00;7.00;;;;;20.92;50.35;101300.44;5034635;28;45753;-48
2022/05/17 05:12:42;;;;;;;;;6.25;5.75;;;;;20.92;50.09;101305.78;5037006;28;45698;-48
2022/05/17 05:15:08;;;;;;;;;9.50;6.00;;;;;20.94;50.12;101307.38;5025844;28;45655;-46
2022/05/17 05:17:35;;;;;;;;;7.00;6.75;;;;;20.95;50.30;101314.41;5025663;28;46194;-49
2022/05/17 05:20:00;;;;;;;;;3.50;3.00;;;;;21.00;50.05;101316.78;5029110;28;45826;-47
2022/05/17 05:22:26;;;;;;;;;6.50;6.00;;;;;21.03;50.15;101327.22;5033491;28;45619;-47
2022/05/17 05:24:52;;;;;;;;;7.50;7.50;;;;;21.04;50.29;101329.81;5027420;28;45712;-46
2022/05/17 05:27:18;;;;;;;;;8.75;7.00;;;;;21.05;50.12;101323.53;5037245;28;45483;-47
2022/05/17 05:29:43;;;;;;;;;10.00;8.00;;;;;21.10;50.26;101323.25;5023083;28;45835;-47
2022/05/17 05:32:09;;;;;;;;;9.50;7.00;;;;;21.13;50.00;101325.72;5029620;28;60708;-48
2022/05/17 05:34:34;;;;;;;;;11.00;7.25;;;;;21.18;49.98;101328.13;5025131;28;45406;-47
2022/05/17 05:37:00;;;;;;;;;8.50;6.50;;;;;21.20;50.09;101328.88;5031176;28;45578;-50
2022/05/17 05:39:26;;;;;;;;;7.25;6.00;;;;;21.27;49.96;101326.69;5027355;28;45513;-47
2022/05/17 05:41:52;;;;;;;;;11.25;9.00;;;;;21.28;49.84;101323.06;5031025;28;59701;-47
2022/05/17 05:44:18;;;;;;;;;9.75;8.00;;;;;21.30;50.12;101334.47;5035985;28;45291;-47
2022/05/17 05:46:44;;;;;;;;;8.25;7.00;;;;;21.33;50.34;101336.94;5022706;28;46323;-47
2022/05/17 05:49:10;;;;;;;;;10.00;8.00;;;;;21.32;50.11;101337.88;5030829;28;45718;-52
2022/05/17 05:51:36;;;;;;;;;13.75;9.25;;;;;21.34;50.17;101344.81;5032968;28;45505;-48
2022/05/17 05:54:02;;;;;;;;;11.25;8.25;;;;;21.36;50.06;101345.59;5028034;28;45470;-47
2022/05/17 05:56:27;;;;;;;;;8.00;7.25;;;;;21.42;50.17;101347.00;5032168;28;45416;-47
2022/05/17 05:58:52;;;;;;;;;10.75;7.75;;;;;21.44;49.94;101350.41;5037006;28;46616;-47
2022/05/17 06:01:18;;;;;;;;;15.25;9.25;;;;;21.47;49.98;101342.28;5022054;28;55035;-47
2022/05/17 06:03:43;;;;;;;;;12.50;9.75;;;;;21.51;49.78;101348.25;5035840;28;45483;-48
2022/05/17 06:06:08;;;;;;;;;8.00;8.00;;;;;21.49;50.01;101343.03;5025980;28;69065;-48
2022/05/17 06:08:34;;;;;;;;;12.00;8.00;;;;;21.56;49.82;101348.81;5034909;28;65212;-47
2022/05/17 06:11:01;;;;;;;;;6.25;6.00;;;;;21.59;49.53;101348.63;5038750;28;45234;-48
2022/05/17 06:13:27;;;;;;;;;12.00;6.00;;;;;21.61;49.80;101344.91;5032146;28;46242;-50
2022/05/17 06:15:53;;;;;;;;;7.25;6.50;;;;;21.66;49.14;101341.97;5036833;28;46135;-50
2022/05/17 06:18:18;;;;;;;;;11.75;9.00;;;;;21.72;49.21;101348.69;5030059;28;45283;-46
2022/05/17 06:20:52;;;;;;;;;10.50;8.00;;;;;21.78;48.92;101359.81;5033213;28;45842;-46
2022/05/17 06:23:18;;;;;;;;;11.50;10.00;;;;;21.81;48.95;101350.78;5025205;28;45427;-47
2022/05/17 06:25:43;;;;;;;;;12.00;9.00;;;;;21.87;49.34;101354.84;5038208;28;46302;-48
2022/05/17 06:28:09;;;;;;;;;7.75;7.75;;;;;21.90;49.27;101355.53;5029904;28;45456;-46
2022/05/17 06:30:34;;;;;;;;;10.50;10.25;;;;;21.93;49.32;101352.63;5033839;28;45415;-48
2022/05/17 06:33:01;;;;;;;;;10.25;10.25;;;;;21.98;49.15;101353.19;5033641;28;66728;-50
2022/05/17 06:35:26;;;;;;;;;12.00;11.00;;;;;22.02;48.52;101351.19;5024524;28;46189;-47
2022/05/17 06:37:52;;;;;;;;;13.25;8.50;;;;;22.08;48.24;101353.47;5035788;28;45494;-47
2022/05/17 06:40:18;;;;;;;;;10.25;10.00;;;;;22.14;48.12;101346.88;5029657;28;45343;-50
2022/05/17 06:42:43;;;;;;;;;7.25;7.00;;;;;22.16;47.88;101350.28;5029252;28;45661;-47
2022/05/17 06:45:09;;;;;;;;;8.50;8.00;;;;;22.25;47.26;101347.00;5025670;28;47017;-47
2022/05/17 06:47:34;;;;;;;;;10.00;7.50;;;;;22.30;47.24;101342.25;5025671;28;45349;-48
2022/05/17 06:50:00;;;;;;;;;7.50;5.50;;;;;22.36;46.92;101344.53;5022645;28;61626;-47
2022/05/17 06:52:27;;;;;;;;;5.00;5.00;;;;;22.37;45.78;101337.38;5023936;28;61835;-48
2022/05/17 06:54:53;;;;;;;;;7.25;4.50;;;;;22.42;46.22;101340.59;5019969;28;45368;-47
2022/05/17 06:57:18;;;;;;;;;5.50;5.00;;;;;22.46;46.33;101342.06;5030022;28;45629;-49
2022/05/17 06:59:45;;;;;;;;;7.00;5.50;;;;;22.52;45.53;101346.13;5023322;28;59077;-49
2022/05/17 07:02:11;;;;;;;;;6.50;3.75;;;;;22.55;45.61;101349.44;5030504;28;45578;-48
2022/05/17 07:04:38;;;;;;;;;5.75;4.00;;;;;22.61;45.13;101348.19;5036043;28;46158;-47
2022/05/17 07:07:04;;;;;;;;;10.50;4.00;;;;;22.66;44.99;101347.88;5026246;28;45253;-46
2022/05/17 07:09:30;;;;;;;;;4.00;4.00;;;;;22.72;45.00;101350.97;5032304;28;45289;-46
2022/05/17 07:14:39;;;;;;;;;4.75;4.75;;;;;22.80;44.62;101347.78;5030027;28;45208;-46
2022/05/17 07:17:06;;;;;;;;;7.75;4.75;;;;;22.82;44.71;101351.19;5025444;28;45297;-46
2022/05/17 07:19:33;;;;;;;;;7.00;5.00;;;;;22.84;44.55;101349.28;5032181;28;45333;-47
2022/05/17 07:22:00;;;;;;;;;5.25;4.75;;;;;22.87;44.33;101342.88;5033294;28;45586;-50
2022/05/17 07:24:25;;;;;;;;;5.25;5.25;;;;;22.92;44.66;101349.59;5039455;28;46325;-47
2022/05/17 07:26:51;;;;;;;;;3.25;3.00;;;;;22.97;43.78;101345.78;5022158;28;60100;-47
2022/05/17 07:29:16;;;;;;;;;4.50;3.50;;;;;23.03;43.56;101348.84;5030764;28;64313;-49
2022/05/17 07:31:41;;;;;;;;;6.75;5.00;;;;;23.10;43.67;101351.97;5028480;28;69093;-47
2022/05/17 07:34:07;;;;;;;;;9.00;4.25;;;;;23.16;44.14;101350.69;5037592;28;45331;-47
2022/05/17 07:36:32;;;;;;;;;4.50;4.00;;;;;23.21;43.22;101353.88;5034388;28;61494;-49
2022/05/17 07:38:59;;;;;;;;;7.50;4.00;;;;;23.26;43.33;101347.25;5036961;28;60769;-47
2022/05/17 07:41:24;;;;;;;;;2.75;0.50;;;;;23.33;43.15;101354.84;5032787;28;45461;-50
2022/05/17 07:43:50;;;;;;;;;4.75;4.00;;;;;23.36;42.81;101352.81;5027813;28;45340;-48
2022/05/17 07:46:15;;;;;;;;;7.50;5.25;;;;;23.42;42.74;101356.84;5032902;28;62253;-47
2022/05/17 07:48:40;;;;;;;;;8.50;4.00;;;;;23.45;42.93;101344.13;5019515;28;45182;-50
2022/05/17 07:51:06;;;;;;;;;6.00;6.00;;;;;23.54;42.65;101347.13;5034343;28;62330;-51
2022/05/17 07:53:32;;;;;;;;;7.50;6.75;;;;;23.61;42.62;101351.06;5029822;28;45216;-50
2022/05/17 07:55:58;;;;;;;;;8.75;6.75;;;;;23.66;42.30;101355.09;5032539;28;45487;-49
2022/05/17 07:58:24;;;;;;;;;7.00;5.25;;;;;23.73;42.41;101357.31;5034726;28;45288;-50
2022/05/17 08:00:50;;;;;;;;;6.75;5.00;;;;;23.79;42.64;101355.03;5037717;28;45590;-49
2022/05/17 08:03:16;;;;;;;;;7.00;7.00;;;;;23.84;42.30;101358.28;5027225;28;45486;-47
2022/05/17 08:05:43;;;;;;;;;5.00;5.00;;;;;23.89;42.16;101355.28;5031429;28;45391;-47
2022/05/17 08:08:08;;;;;;;;;11.25;9.75;;;;;23.96;41.84;101353.84;5030798;28;45333;-49
2022/05/17 08:10:34;;;;;;;;;11.25;9.75;;;;;24.00;41.84;101352.66;5022710;28;45501;-46
2022/05/17 08:12:59;;;;;;;;;7.25;6.00;;;;;24.08;40.39;101360.09;5036180;28;70250;-47
2022/05/17 08:15:25;;;;;;;;;4.00;3.00;;;;;24.13;40.71;101349.06;5021176;28;60793;-47
2022/05/17 08:17:50;;;;;;;;;4.75;3.00;;;;;24.21;40.13;101349.34;5032827;28;45789;-48
2022/05/17 08:20:16;;;;;;;;;6.25;4.75;;;;;24.28;39.73;101353.28;5031405;28;45309;-47
2022/05/17 08:22:43;;;;;;;;;4.25;4.25;;;;;24.36;39.10;101353.53;5028567;28;46069;-47
2022/05/17 08:27:55;;;;;;;;;5.25;5.25;;;;;24.49;39.33;101356.16;5036700;28;45411;-48
2022/05/17 08:30:22;;;;;;;;;5.75;5.00;;;;;24.52;39.07;101350.53;5038983;28;45484;-48
2022/05/17 08:35:49;;;;;;;;;4.25;4.25;;;;;24.64;38.16;101348.78;5034491;28;45300;-47
2022/05/17 08:38:21;;;;;;;;;8.00;5.50;;;;;24.71;37.99;101350.03;5039061;28;45439;-47
2022/05/17 08:40:55;;;;;;;;;6.00;6.00;;;;;24.78;37.98;101358.44;5014730;28;45247;-48
2022/05/17 08:43:30;;;;;;;;;5.50;5.00;;;;;24.83;37.95;101349.06;5023806;28;45284;-47
2022/05/17 08:46:10;;;;;;;;;6.25;5.00;;;;;24.89;37.65;101345.06;5026799;28;45687;-47
2022/05/17 08:48:45;;;;;;;;;9.25;5.75;;;;;24.95;37.72;101339.25;5027342;28;45494;-46
2022/05/17 08:51:12;;;;;;;;;6.50;3.50;;;;;25.03;37.06;101338.63;5028597;28;45451;-47
2022/05/17 08:53:38;;;;;;;;;1.25;1.00;;;;;25.10;36.84;101336.34;5031168;28;46281;-47
2022/05/17 08:56:03;;;;;;;;;2.50;1.50;;;;;25.17;36.09;101337.53;5034238;28;65912;-48
2022/05/17 08:58:31;;;;;;;;;4.25;2.00;;;;;25.21;35.30;101333.63;5035426;28;45402;-48
2022/05/17 09:01:06;;;;;;;;;2.75;2.75;;;;;25.28;35.86;101347.44;5033476;28;45439;-48
2022/05/17 09:03:40;;;;;;;;;2.50;1.50;;;;;25.33;34.90;101337.22;5022200;28;46097;-46
2022/05/17 09:06:15;;;;;;;;;4.00;2.75;;;;;25.39;35.64;101334.03;5027649;28;45658;-47
2022/05/17 09:08:49;;;;;;;;;3.00;2.00;;;;;25.43;35.43;101340.88;5035405;28;45447;-48
2022/05/17 09:11:21;;;;;;;;;3.50;3.50;;;;;25.49;34.96;101340.34;5048571;28;45711;-47
2022/05/17 09:13:58;;;;;;;;;3.50;1.50;;;;;25.56;34.69;101340.72;5033430;28;46669;-48
2022/05/17 09:16:26;;;;;;;;;2.25;2.25;;;;;25.62;34.30;101337.56;5037621;28;45799;-47
2022/05/17 09:18:52;;;;;;;;;3.00;3.00;;;;;25.68;34.36;101337.03;5024367;28;45289;-47
2022/05/17 09:21:33;;;;;;;;;6.00;4.00;;;;;25.76;33.93;101331.03;5032365;28;45334;-48
2022/05/17 09:24:03;;;;;;;;;3.25;2.25;;;;;25.86;34.13;101334.69;5032270;28;46047;-47
2022/05/17 09:26:29;;;;;;;;;3.00;2.00;;;;;25.94;34.12;101332.25;5044200;28;45644;-47
2022/05/17 09:29:05;;;;;;;;;4.25;3.25;;;;;26.05;33.67;101333.19;5035047;28;45403;-47
2022/05/17 09:31:33;;;;;;;;;8.50;4.75;;;;;26.16;33.26;101330.47;5028369;28;45563;-47
2022/05/17 09:34:01;;;;;;;;;2.75;2.00;;;;;26.25;33.26;101321.63;5033489;28;46218;-47
2022/05/17 09:36:40;;;;;;;;;2.25;1.25;;;;;26.39;32.38;101323.16;5035564;28;45892;-48
2022/05/17 09:39:06;;;;;;;;;2.00;0.25;;;;;26.53;33.00;101320.16;5037535;28;45255;-48
2022/05/17 09:41:36;;;;;;;;;0.25;0.25;;;;;26.87;32.56;101319.94;5031357;28;57359;-47
2022/05/17 09:44:05;;;;;;;;;5.00;2.75;;;;;27.44;31.92;101327.56;5034924;28;46113;-47
2022/05/17 09:46:34;;;;;;;;;0.00;0.00;;;;;28.69;30.72;101322.41;5040205;28;45454;-47
2022/05/17 09:54:45;;;;;;;;;0.25;0.25;;;;;34.81;26.36;101310.78;5034808;28;45741;-47
2022/05/17 09:57:22;;;;;;;;;1.00;1.00;;;;;36.30;24.39;101314.00;5033075;28;45449;-48
2022/05/17 09:59:50;;;;;;;;;2.50;0.75;;;;;37.46;22.99;101309.00;5035169;28;45643;-50
2022/05/17 10:02:51;;;;;;;;;1.25;1.25;;;;;38.64;21.50;101317.56;5027942;28;45256;-48
2022/05/17 10:05:18;;;;;;;;;4.75;2.00;;;;;39.64;20.98;101310.84;4993413;28;46062;-48
2022/05/17 10:07:56;;;;;;;;;2.00;2.00;;;;;40.62;19.06;101314.91;5032365;28;45241;-47
2022/05/17 10:10:39;;;;;;;;;1.00;1.00;;;;;41.44;18.91;101308.28;5029104;28;45378;-48
2022/05/17 10:13:10;;;;;;;;;2.25;1.00;;;;;42.21;18.21;101305.59;5039625;28;45271;-51
2022/05/17 10:15:37;;;;;;;;;1.25;1.00;;;;;43.00;18.24;101305.16;5030840;28;46226;-47
2022/05/17 10:18:08;;;;;;;;;1.00;1.00;;;;;43.59;17.62;101302.16;5024917;28;45681;-48
2022/05/17 10:20:42;;;;;;;;;3.75;1.25;;;;;44.23;16.81;101305.75;5030172;28;45284;-47
2022/05/17 10:23:26;;;;;;;;;2.00;0.25;;;;;44.76;16.00;101298.75;5036014;28;45348;-49
2022/05/17 10:26:06;;;;;;;;;0.00;0.00;;;;;45.29;15.02;101291.66;5035720;28;46063;-49
2022/05/17 10:28:38;;;;;;;;;1.50;1.25;;;;;45.82;14.61;101291.91;5030948;28;45434;-45
2022/05/17 10:31:11;;;;;;;;;1.75;1.00;;;;;46.17;14.72;101287.75;5036531;28;45463;-53
2022/05/17 10:33:51;;;;;;;;;1.00;0.50;;;;;46.69;14.97;101282.50;5034082;28;45464;-51
2022/05/17 10:36:31;;;;;;;;;0.00;0.00;;;;;47.02;13.17;101272.13;5020871;28;45364;-47
2022/05/17 10:39:06;;;;;;;;;1.50;1.50;;;;;47.35;14.18;101268.88;5035231;28;45300;-46
2022/05/17 10:41:32;;;;;;;;;1.00;0.00;;;;;47.64;13.42;101275.84;5032811;28;45308;-47
2022/05/17 10:43:58;;;;;;;;;0.25;0.25;;;;;47.71;13.53;101263.34;5036222;28;45281;-47
2022/05/17 10:46:29;;;;;;;;;1.50;0.00;;;;;47.73;12.33;101265.84;5024862;28;46026;-46
2022/05/17 10:49:23;;;;;;;;;22.25;21.00;;;;;48.18;12.82;101263.28;5040276;28;45698;-48
2022/05/17 10:52:08;;;;;;;;;8.25;6.25;;;;;48.46;12.75;101267.38;5032976;28;45369;-46
2022/05/17 10:55:05;;;;;;;;;1.25;1.25;;;;;48.74;12.44;101260.31;5030947;28;45313;-47
2022/05/17 10:57:46;;;;;;;;;2.00;1.50;;;;;49.12;12.91;101255.09;5033636;28;47155;-46
2022/05/17 11:00:18;;;;;;;;;5.00;3.00;;;;;49.22;11.92;101245.88;5035289;28;45495;-49
2022/05/17 11:03:02;;;;;;;;;22.75;22.00;;;;;49.43;11.95;101243.78;5033795;28;45414;-47
2022/05/17 11:05:40;;;;;;;;;2.00;2.00;;;;;49.47;12.10;101244.03;5032498;28;45530;-48
2022/05/17 11:08:40;;;;;;;;;8.00;3.75;;;;;49.16;12.19;101247.88;5028070;28;45415;-46
2022/05/17 11:11:11;;;;;;;;;6.00;6.00;;;;;49.13;11.89;101242.06;5032907;28;46328;-48
2022/05/17 11:13:57;;;;;;;;;5.00;3.75;;;;;49.24;10.70;101237.25;5051502;28;45327;-49
2022/05/17 11:16:25;;;;;;;;;15.25;13.75;;;;;49.10;11.69;101234.28;5029700;28;45324;-48
2022/05/17 11:19:05;;;;;;;;;3.00;3.00;;;;;49.06;11.80;101234.00;5034644;28;45360;-48
2022/05/17 11:21:38;;;;;;;;;1.50;1.50;;;;;48.84;11.66;101231.63;5037974;28;45371;-47
2022/05/17 11:24:03;;;;;;;;;2.00;2.00;;;;;48.96;11.73;101228.50;5034592;28;45333;-48
2022/05/17 11:26:44;;;;;;;;;1.00;1.00;;;;;48.79;11.78;101221.41;5032441;28;45387;-50
2022/05/17 11:29:37;;;;;;;;;3.25;3.25;;;;;48.66;11.69;101225.63;5029583;28;45427;-48
2022/05/17 11:32:40;;;;;;;;;2.00;2.00;;;;;48.66;11.42;101211.72;5028640;28;45319;-48
2022/05/17 11:35:31;;;;;;;;;1.00;1.00;;;;;48.74;11.30;101217.84;5015763;28;45382;-45
2022/05/17 11:37:58;;;;;;;;;2.00;1.75;;;;;48.25;11.18;101214.66;5027391;28;45280;-47
2022/05/17 11:40:51;;;;;;;;;1.00;0.50;;;;;47.24;11.05;101211.75;5028380;28;68074;-48
2022/05/17 11:43:42;;;;;;;;;5.50;5.50;;;;;47.06;11.67;101212.25;5027272;28;45925;-50
2022/05/17 11:46:29;;;;;;;;;1.00;1.00;;;;;47.40;11.60;101201.47;5033923;28;45493;-48
2022/05/17 11:48:55;;;;;;;;;5.75;3.25;;;;;47.56;11.61;101196.75;5039303;28;46173;-47
2022/05/17 11:51:22;;;;;;;;;2.75;2.50;;;;;47.56;11.96;101199.53;5027795;28;45378;-48